createdAt,value
2023-02-02T00:00:28.526Z,100141.03
2023-02-02T00:03:31.638Z,100167.22
2023-02-02T00:06:34.420Z,100184.41
2023-02-02T00:09:37.477Z,100175.50
2023-02-02T00:12:40.174Z,100169.69
2023-02-02T00:15:43.194Z,100157.06
2023-02-02T00:18:45.850Z,100136.41
2023-02-02T00:21:49.347Z,100150.72
2023-02-02T00:24:52.051Z,100152.41
2023-02-02T00:27:55.292Z,100162.44
2023-02-02T00:30:58.109Z,100157.78
2023-02-02T00:34:01.299Z,100164.28
2023-02-02T00:37:04.377Z,100179.44
2023-02-02T00:40:08.416Z,100193.16
2023-02-02T00:43:11.033Z,100201.19
2023-02-02T00:46:18.969Z,100207.03
2023-02-02T00:49:22.022Z,100210.53
2023-02-02T00:52:26.156Z,100207.97
2023-02-02T00:55:29.317Z,100195.91
2023-02-02T00:58:32.420Z,100177.19
2023-02-02T01:01:35.299Z,100182.00
2023-02-02T01:04:38.983Z,100199.41
2023-02-02T01:07:42.185Z,100198.12
2023-02-02T01:10:45.295Z,100202.47
2023-02-02T01:13:48.127Z,100198.12
2023-02-02T01:16:51.273Z,100195.38
2023-02-02T01:19:54.258Z,100200.06
2023-02-02T01:22:57.324Z,100194.25
2023-02-02T01:26:02.091Z,100177.16
2023-02-02T01:29:05.216Z,100160.53
2023-02-02T01:32:08.263Z,100166.03
2023-02-02T01:35:11.391Z,100174.22
2023-02-02T01:38:15.318Z,100179.56
2023-02-02T01:41:24.421Z,100174.72
2023-02-02T01:45:04.542Z,100152.13
2023-02-02T01:48:07.782Z,100143.09
2023-02-02T01:51:15.643Z,100136.66
2023-02-02T01:54:30.622Z,100115.34
2023-02-02T01:57:39.083Z,100108.06
2023-02-02T02:00:45.633Z,100092.41
2023-02-02T02:03:50.021Z,100105.47
2023-02-02T02:06:53.929Z,100136.09
2023-02-02T02:09:56.939Z,100153.50
2023-02-02T02:12:59.924Z,100157.38
2023-02-02T02:16:21.068Z,100142.53
2023-02-02T02:20:04.854Z,100146.41
2023-02-02T02:23:41.808Z,100142.06
2023-02-02T02:27:03.898Z,100147.72
2023-02-02T02:30:24.958Z,100153.41
2023-02-02T02:33:40.190Z,100147.59
2023-02-02T02:36:55.044Z,100148.56
2023-02-02T02:40:22.391Z,100143.41
2023-02-02T02:43:33.571Z,100141.66
2023-02-02T02:46:38.211Z,100152.94
2023-02-02T02:49:45.711Z,100153.47
2023-02-02T02:52:52.959Z,100161.19
2023-02-02T02:56:24.997Z,100159.09
2023-02-02T02:59:53.458Z,100157.16
2023-02-02T03:03:08.415Z,100166.37
2023-02-02T03:06:13.925Z,100169.44
2023-02-02T03:09:23.287Z,100170.56
2023-02-02T03:12:26.224Z,100175.44
2023-02-02T03:15:29.344Z,100162.69
2023-02-02T03:18:33.428Z,100168.19
2023-02-02T03:21:36.543Z,100167.88
2023-02-02T03:24:39.211Z,100160.47
2023-02-02T03:27:42.310Z,100163.38
2023-02-02T03:30:46.506Z,100172.72
2023-02-02T03:33:49.600Z,100152.75
2023-02-02T03:36:52.311Z,100172.06
2023-02-02T03:39:55.421Z,100174.50
2023-02-02T03:42:58.193Z,100179.94
2023-02-02T05:12:56.016Z,100226.00
2023-02-02T05:15:59.100Z,100243.28
2023-02-02T05:19:01.810Z,100243.41
2023-02-02T05:22:04.791Z,100248.16
2023-02-02T05:25:08.935Z,100249.66
2023-02-02T05:28:11.959Z,100249.59
2023-02-02T05:31:15.224Z,100245.66
2023-02-02T05:34:18.265Z,100255.62
2023-02-02T05:37:20.989Z,100260.44
2023-02-02T05:40:24.094Z,100264.47
2023-02-02T05:43:28.662Z,100248.72
2023-02-02T05:46:31.920Z,100256.91
2023-02-02T05:49:34.621Z,100268.75
2023-02-02T05:52:39.147Z,100262.97
2023-02-02T05:55:41.914Z,100266.94
2023-02-02T05:58:47.525Z,100266.12
2023-02-02T06:01:50.403Z,100262.09
2023-02-02T06:04:53.572Z,100275.31
2023-02-02T06:07:56.266Z,100268.81
2023-02-02T06:10:59.380Z,100269.34
2023-02-02T06:14:02.096Z,100276.59
2023-02-02T06:17:05.366Z,100272.91
2023-02-02T06:20:08.441Z,100272.91
2023-02-02T06:23:11.499Z,100273.25
2023-02-02T06:26:15.064Z,100277.19
2023-02-02T06:29:18.069Z,100273.09
2023-02-02T06:32:20.801Z,100258.75
2023-02-02T06:35:24.222Z,100270.50
2023-02-02T06:38:27.665Z,100272.91
2023-02-02T06:41:31.716Z,100278.25
2023-02-02T06:44:34.397Z,100282.47
2023-02-02T06:47:37.426Z,100286.47
2023-02-02T06:50:40.432Z,100286.56
2023-02-02T06:53:43.433Z,100281.81
2023-02-02T06:56:46.119Z,100275.25
2023-02-02T06:59:50.856Z,100281.84
2023-02-02T07:02:53.853Z,100280.00
2023-02-02T07:05:56.921Z,100284.91
2023-02-02T07:09:02.950Z,100286.31
2023-02-02T07:12:06.742Z,100288.44
2023-02-02T07:15:10.024Z,100297.91
2023-02-02T07:18:13.040Z,100288.13
2023-02-02T07:21:20.808Z,100302.38
2023-02-02T07:24:23.927Z,100296.34
2023-02-02T07:27:26.585Z,100308.16
2023-02-02T07:30:30.068Z,100296.44
2023-02-02T07:33:32.848Z,100299.72
2023-02-02T07:36:36.173Z,100297.28
2023-02-02T07:39:40.417Z,100297.84
2023-02-02T07:42:46.453Z,100304.91
2023-02-02T07:45:49.299Z,100303.03
2023-02-02T07:48:58.349Z,100315.47
2023-02-02T07:52:01.311Z,100316.47
2023-02-02T07:55:25.981Z,100313.38
2023-02-02T07:58:27.484Z,100326.28
2023-02-02T08:01:30.683Z,100327.59
2023-02-02T08:04:34.527Z,100332.09
2023-02-02T08:07:37.462Z,100331.59
2023-02-02T08:10:40.580Z,100338.53
2023-02-02T08:13:44.293Z,100325.28
2023-02-02T08:16:47.381Z,100336.75
2023-02-02T08:19:50.097Z,100328.53
2023-02-02T08:22:53.173Z,100324.00
2023-02-02T08:26:25.652Z,100316.09
2023-02-02T08:29:28.806Z,100336.06
2023-02-02T08:32:32.080Z,100330.25
2023-02-02T08:35:35.143Z,100327.78
2023-02-02T08:38:37.841Z,100331.00
2023-02-02T08:41:42.310Z,100334.34
2023-02-02T08:46:01.424Z,100332.37
2023-02-02T08:48:12.135Z,100329.59
2023-02-02T08:51:19.225Z,100325.66
2023-02-02T08:54:22.545Z,100328.72
2023-02-02T08:57:25.351Z,100325.44
2023-02-02T09:00:28.382Z,100319.91
2023-02-02T09:03:31.434Z,100318.69
2023-02-02T09:06:37.168Z,100315.94
2023-02-02T09:09:39.775Z,100314.16
2023-02-02T09:12:42.917Z,100341.19
2023-02-02T09:15:45.771Z,100340.03
2023-02-02T09:18:49.005Z,100332.59
2023-02-02T09:21:52.125Z,100337.91
2023-02-02T09:24:55.151Z,100344.12
2023-02-02T09:27:57.910Z,100339.41
2023-02-02T09:31:04.367Z,100345.31
2023-02-02T09:34:09.619Z,100339.41
2023-02-02T09:37:12.637Z,100334.16
2023-02-02T09:40:19.410Z,100332.75
2023-02-02T09:43:34.294Z,100342.19
2023-02-02T09:46:51.907Z,100333.62
2023-02-02T09:50:17.834Z,100322.53
2023-02-02T09:53:26.964Z,100321.94
2023-02-02T09:56:41.988Z,100326.88
2023-02-02T09:59:48.032Z,100330.97
2023-02-02T10:02:56.960Z,100329.50
2023-02-02T10:06:27.067Z,100328.16
2023-02-02T10:09:29.667Z,100316.97
2023-02-02T10:12:50.107Z,100298.53
2023-02-02T10:16:13.800Z,100290.88
2023-02-02T10:19:16.974Z,100286.91
2023-02-02T10:22:28.121Z,100274.63
2023-02-02T10:25:33.563Z,100279.81
2023-02-02T10:28:51.301Z,100275.69
2023-02-02T10:32:11.519Z,100272.03
2023-02-02T10:35:24.509Z,100267.22
2023-02-02T10:38:56.046Z,100268.44
2023-02-02T10:42:16.301Z,100265.97
2023-02-02T10:45:20.810Z,100271.59
2023-02-02T10:48:35.952Z,100256.25
2023-02-02T10:51:41.462Z,100283.78
2023-02-02T10:54:58.371Z,100289.78
2023-02-02T10:58:14.354Z,100281.13
2023-02-02T11:01:18.499Z,100293.84
2023-02-02T11:04:41.623Z,100302.56
2023-02-02T11:07:44.672Z,100301.06
2023-02-02T11:10:52.712Z,100293.16
2023-02-02T11:14:19.057Z,100297.41
2023-02-02T11:17:25.188Z,100298.03
2023-02-02T11:20:39.085Z,100291.84
2023-02-02T11:23:52.168Z,100288.06
2023-02-02T11:27:09.755Z,100279.69
2023-02-02T11:30:31.615Z,100275.66
2023-02-02T11:33:38.548Z,100282.00
2023-02-02T11:36:41.567Z,100265.06
2023-02-02T11:39:44.556Z,100280.41
2023-02-02T11:42:48.815Z,100273.16
2023-02-02T11:46:21.471Z,100272.62
2023-02-02T11:49:25.220Z,100270.31
2023-02-02T11:52:32.650Z,100263.41
2023-02-02T11:55:36.260Z,100294.53
2023-02-02T11:58:53.301Z,100294.97
2023-02-02T12:02:28.020Z,100286.72
2023-02-02T12:05:37.639Z,100283.53
2023-02-02T12:08:40.369Z,100293.16
2023-02-02T12:12:32.122Z,100284.66
2023-02-02T12:15:46.808Z,100292.84
2023-02-02T12:19:08.593Z,100285.66
2023-02-02T12:22:36.402Z,100293.19
2023-02-02T12:25:46.118Z,100294.50
2023-02-02T12:29:32.355Z,100294.31
2023-02-02T12:32:50.880Z,100292.66
2023-02-02T12:36:37.000Z,100300.47
2023-02-02T12:39:57.643Z,100307.28
2023-02-02T12:43:15.246Z,100302.69
2023-02-02T12:46:27.405Z,100314.63
2023-02-02T12:49:48.057Z,100315.94
2023-02-02T12:53:26.444Z,100316.41
2023-02-02T12:56:45.868Z,100324.69
2023-02-02T13:00:01.032Z,100325.59
2023-02-02T13:03:25.204Z,100336.50
2023-02-02T13:06:59.019Z,100327.91
2023-02-02T13:10:22.126Z,100335.00
2023-02-02T13:13:35.552Z,100339.00
2023-02-02T13:16:44.407Z,100341.16
2023-02-02T13:19:53.891Z,100342.31
2023-02-02T13:23:07.256Z,100339.66
2023-02-02T13:26:42.285Z,100340.28
2023-02-02T13:29:51.942Z,100327.66
2023-02-02T13:33:03.365Z,100322.94
2023-02-02T13:36:26.024Z,100308.81
2023-02-02T13:40:18.465Z,100331.59
2023-02-02T13:43:37.136Z,100338.34
2023-02-02T13:46:57.307Z,100333.06
2023-02-02T13:50:07.493Z,100335.56
2023-02-02T13:53:35.821Z,100334.81
2023-02-02T13:57:06.006Z,100356.16
2023-02-02T14:00:47.914Z,100355.47
2023-02-02T14:03:56.851Z,100358.53
2023-02-02T14:07:07.066Z,100354.66
2023-02-02T14:10:29.316Z,100359.84
2023-02-02T14:14:06.055Z,100363.84
2023-02-02T14:17:16.760Z,100366.94
2023-02-02T14:20:51.897Z,100371.19
2023-02-02T14:23:56.471Z,100369.37
2023-02-02T14:27:22.995Z,100368.44
2023-02-02T14:30:33.158Z,100356.72
2023-02-02T14:33:47.581Z,100364.84
2023-02-02T14:37:10.912Z,100377.09
2023-02-02T14:40:16.427Z,100372.66
2023-02-02T14:43:49.836Z,100377.75
2023-02-02T14:46:52.518Z,100372.91
2023-02-02T14:49:58.214Z,100369.59
2023-02-02T14:53:16.614Z,100378.56
2023-02-02T14:56:20.966Z,100381.03
2023-02-02T14:59:39.579Z,100383.06
2023-02-02T15:02:42.589Z,100374.38
2023-02-02T15:05:46.301Z,100388.31
2023-02-02T15:09:20.239Z,100386.75
2023-02-02T15:12:35.127Z,100395.22
2023-02-02T15:15:43.720Z,100392.69
2023-02-02T15:18:55.653Z,100396.75
2023-02-02T15:22:14.432Z,100405.16
2023-02-02T15:25:31.109Z,100412.44
2023-02-02T15:28:47.135Z,100410.03
2023-02-02T15:31:54.460Z,100418.59
2023-02-02T15:35:05.547Z,100419.91
2023-02-02T15:38:17.679Z,100421.53
2023-02-02T15:41:25.861Z,100420.91
2023-02-02T15:44:30.056Z,100413.78
2023-02-02T15:47:41.914Z,100426.22
2023-02-02T15:50:51.311Z,100439.81
2023-02-02T15:53:54.950Z,100447.72
2023-02-02T15:57:00.444Z,100445.62
2023-02-02T16:00:34.676Z,100445.16
2023-02-02T16:03:45.990Z,100436.94
2023-02-02T16:06:49.579Z,100445.78
2023-02-02T16:09:53.383Z,100446.47
2023-02-02T16:12:56.810Z,100459.03
2023-02-02T16:16:06.983Z,100460.50
2023-02-02T16:19:09.695Z,100460.66
2023-02-02T16:22:18.215Z,100463.53
2023-02-02T16:25:24.152Z,100463.69
2023-02-02T16:28:27.735Z,100471.78
2023-02-02T16:31:31.566Z,100466.59
2023-02-02T16:34:40.866Z,100470.47
2023-02-02T16:37:43.719Z,100468.88
2023-02-02T16:40:46.792Z,100461.94
2023-02-02T16:43:49.445Z,100467.59
2023-02-02T16:46:53.199Z,100468.06
2023-02-02T16:50:20.149Z,100484.19
2023-02-02T16:53:24.554Z,100490.81
2023-02-02T16:56:44.995Z,100486.47
2023-02-02T16:59:52.453Z,100494.53
2023-02-02T17:03:08.005Z,100490.50
2023-02-02T17:06:11.541Z,100492.75
2023-02-02T17:09:37.499Z,100503.56
2023-02-02T17:12:40.626Z,100510.34
2023-02-02T17:15:51.755Z,100506.50
2023-02-02T17:18:55.398Z,100514.38
2023-02-02T17:22:01.758Z,100526.47
2023-02-02T17:25:05.488Z,100546.34
2023-02-02T17:28:13.779Z,100544.69
2023-02-02T17:31:17.373Z,100547.59
2023-02-02T17:34:20.369Z,100550.00
2023-02-02T17:37:24.356Z,100568.87
2023-02-02T17:40:27.780Z,100590.81
2023-02-02T17:43:33.199Z,100600.16
2023-02-02T17:46:39.037Z,100602.91
2023-02-02T17:49:43.339Z,100617.41
2023-02-02T17:52:48.906Z,100625.31
2023-02-02T17:55:53.739Z,100635.31
2023-02-02T17:58:56.767Z,100638.69
2023-02-02T18:02:00.246Z,100640.28
2023-02-02T18:05:05.198Z,100643.97
2023-02-02T18:08:11.413Z,100651.69
2023-02-02T18:11:16.658Z,100641.38
2023-02-02T18:14:19.713Z,100644.25
2023-02-02T18:17:23.491Z,100640.69
2023-02-02T18:20:26.696Z,100642.44
2023-02-02T18:23:30.485Z,100643.06
2023-02-02T18:26:34.875Z,100661.13
2023-02-02T18:29:38.638Z,100664.16
2023-02-02T18:32:42.280Z,100650.28
2023-02-02T18:35:47.843Z,100669.72
2023-02-02T18:38:54.101Z,100654.72
2023-02-02T18:41:58.565Z,100655.66
2023-02-02T18:45:02.279Z,100667.69
2023-02-02T18:48:06.696Z,100661.22
2023-02-02T18:51:18.347Z,100668.44
2023-02-02T18:54:22.668Z,100666.81
2023-02-02T18:57:26.235Z,100675.84
2023-02-02T19:00:30.256Z,100680.22
2023-02-02T19:03:34.379Z,100677.59
2023-02-02T19:06:56.626Z,100678.72
2023-02-02T19:09:59.856Z,100694.22
2023-02-02T19:13:20.510Z,100705.50
2023-02-02T19:16:30.386Z,100718.37
2023-02-02T19:19:34.950Z,100732.88
2023-02-02T19:22:38.520Z,100727.53
2023-02-02T19:25:50.124Z,100735.41
2023-02-02T19:29:05.899Z,100746.88
2023-02-02T19:32:15.745Z,100753.97
2023-02-02T19:35:24.411Z,100752.06
2023-02-02T19:38:30.032Z,100748.06
2023-02-02T19:41:33.211Z,100758.09
2023-02-02T19:44:39.103Z,100766.91
2023-02-02T19:47:44.777Z,100768.75
2023-02-02T19:50:49.041Z,100777.28
2023-02-02T19:53:54.690Z,100784.66
2023-02-02T19:57:17.322Z,100788.53
2023-02-02T20:00:27.341Z,100792.41
2023-02-02T20:03:43.399Z,100789.13
2023-02-02T20:06:58.567Z,100792.97
2023-02-02T20:10:24.300Z,100794.72
2023-02-02T20:13:42.741Z,100784.94
2023-02-02T20:16:52.949Z,100782.41
2023-02-02T20:19:56.587Z,100781.09
2023-02-02T20:23:00.596Z,100790.34
2023-02-02T20:26:16.468Z,100780.09
2023-02-02T20:29:19.812Z,100786.50
2023-02-02T20:32:26.772Z,100797.94
2023-02-02T20:35:37.453Z,100799.06
2023-02-02T20:38:40.525Z,100803.03
2023-02-02T20:41:44.965Z,100810.94
2023-02-02T20:44:49.176Z,100814.25
2023-02-02T20:47:53.054Z,100826.84
2023-02-02T20:50:56.505Z,100827.47
2023-02-02T20:53:59.574Z,100828.06
2023-02-02T20:57:02.608Z,100822.88
2023-02-02T21:00:13.011Z,100832.84
2023-02-02T21:03:16.028Z,100837.69
2023-02-02T21:06:20.656Z,100835.16
2023-02-02T21:09:23.577Z,100833.44
2023-02-02T21:12:27.480Z,100837.88
2023-02-02T21:15:30.300Z,100850.25
2023-02-02T21:18:33.658Z,100854.19
2023-02-02T21:21:36.868Z,100854.19
2023-02-02T21:24:40.561Z,100856.53
2023-02-02T21:27:44.693Z,100865.25
2023-02-02T21:30:47.863Z,100853.31
2023-02-02T21:33:53.971Z,100862.72
2023-02-02T21:36:58.665Z,100880.47
2023-02-02T21:40:01.826Z,100882.97
2023-02-02T21:43:14.664Z,100881.63
2023-02-02T21:46:29.136Z,100874.34
2023-02-02T21:49:40.262Z,100881.03
2023-02-02T21:52:42.967Z,100897.22
2023-02-02T21:55:52.434Z,100893.53
2023-02-02T21:58:59.577Z,100893.88
2023-02-02T22:02:28.705Z,100899.00
2023-02-02T22:05:36.785Z,100901.06
2023-02-02T22:08:39.773Z,100901.66
2023-02-02T22:11:51.334Z,100908.47
2023-02-02T22:15:00.299Z,100912.81
2023-02-02T22:18:13.988Z,100910.69
2023-02-02T22:21:20.798Z,100921.72
2023-02-02T22:24:25.466Z,100930.41
2023-02-02T22:27:43.043Z,100935.88
2023-02-02T22:30:46.641Z,100939.25
2023-02-02T22:33:49.364Z,100945.22
2023-02-02T22:36:52.369Z,100966.50
2023-02-02T22:39:55.049Z,100959.37
2023-02-02T22:43:00.138Z,100954.94
2023-02-02T22:46:02.922Z,100976.63
2023-02-02T22:49:06.063Z,100987.06
2023-02-02T22:52:08.729Z,100991.12
2023-02-02T22:55:12.545Z,100996.06
2023-02-02T22:58:15.172Z,101003.75
2023-02-02T23:01:18.286Z,100999.91
2023-02-02T23:04:20.860Z,101009.22
2023-02-02T23:07:23.828Z,101007.28
2023-02-02T23:10:29.691Z,101018.53
2023-02-02T23:13:32.923Z,101013.06
2023-02-02T23:16:35.612Z,101007.06
2023-02-02T23:19:38.644Z,101008.19
2023-02-02T23:22:41.616Z,101020.81
2023-02-02T23:25:44.575Z,101016.47
2023-02-02T23:28:47.201Z,101022.53
2023-02-02T23:31:50.262Z,101023.66
2023-02-02T23:34:52.876Z,101034.50
2023-02-02T23:37:55.885Z,101032.88
2023-02-02T23:41:00.408Z,101027.03
2023-02-02T23:44:03.430Z,101039.81
2023-02-02T23:47:06.414Z,101042.25
2023-02-02T23:50:11.624Z,101055.66
2023-02-02T23:53:15.336Z,101057.84
2023-02-02T23:56:18.630Z,101057.06
2023-02-02T23:59:21.310Z,101065.84
